sensor_id;sensor_type;location;lat;lon;timestamp;temperature;humidity
28075;DHT22;15385;51.088;6.572;2022-11-06T00:00:17;11.00;99.90
28075;DHT22;15385;51.088;6.572;2022-11-06T00:02:47;11.00;99.90
28075;DHT22;15385;51.088;6.572;2022-11-06T00:05:18;10.90;99.90
28075;DHT22;15385;51.088;6.572;2022-11-06T00:08:07;10.80;99.90
28075;DHT22;15385;51.088;6.572;2022-11-06T00:10:37;10.70;99.90
28075;DHT22;15385;51.088;6.572;2022-11-06T00:13:08;10.70;99.90
28075;DHT22;15385;51.088;6.572;2022-11-06T00:15:38;10.70;99.90
28075;DHT22;15385;51.088;6.572;2022-11-06T00:18:09;10.70;99.90
28075;DHT22;15385;51.088;6.572;2022-11-06T00:20:39;10.60;99.90
28075;DHT22;15385;51.088;6.572;2022-11-06T00:23:10;10.40;99.90
28075;DHT22;15385;51.088;6.572;2022-11-06T00:25:40;10.40;99.90
28075;DHT22;15385;51.088;6.572;2022-11-06T00:28:11;10.40;99.90
28075;DHT22;15385;51.088;6.572;2022-11-06T00:30:41;10.50;99.90
28075;DHT22;15385;51.088;6.572;2022-11-06T00:33:12;10.50;99.90
28075;DHT22;15385;51.088;6.572;2022-11-06T00:35:42;10.50;99.90
28075;DHT22;15385;51.088;6.572;2022-11-06T00:38:13;10.60;99.90
28075;DHT22;15385;51.088;6.572;2022-11-06T00:40:43;10.60;99.90
28075;DHT22;15385;51.088;6.572;2022-11-06T00:43:14;10.50;99.90
28075;DHT22;15385;51.088;6.572;2022-11-06T00:45:44;10.60;99.90
28075;DHT22;15385;51.088;6.572;2022-11-06T00:48:15;10.50;99.90
28075;DHT22;15385;51.088;6.572;2022-11-06T00:50:45;10.50;99.90
28075;DHT22;15385;51.088;6.572;2022-11-06T00:53:16;10.50;99.90
28075;DHT22;15385;51.088;6.572;2022-11-06T00:55:49;10.60;99.90
28075;DHT22;15385;51.088;6.572;2022-11-06T00:58:19;10.60;99.90
28075;DHT22;15385;51.088;6.572;2022-11-06T01:00:50;10.60;99.90
28075;DHT22;15385;51.088;6.572;2022-11-06T01:03:20;10.70;99.90
28075;DHT22;15385;51.088;6.572;2022-11-06T01:05:51;10.80;99.90
28075;DHT22;15385;51.088;6.572;2022-11-06T01:08:21;10.80;99.90
28075;DHT22;15385;51.088;6.572;2022-11-06T01:10:52;10.90;99.90
28075;DHT22;15385;51.088;6.572;2022-11-06T01:13:22;10.90;99.90
28075;DHT22;15385;51.088;6.572;2022-11-06T01:15:53;10.90;99.90
28075;DHT22;15385;51.088;6.572;2022-11-06T01:18:23;10.90;99.90
28075;DHT22;15385;51.088;6.572;2022-11-06T01:20:54;10.90;99.90
28075;DHT22;15385;51.088;6.572;2022-11-06T01:23:24;10.90;99.90
28075;DHT22;15385;51.088;6.572;2022-11-06T01:25:56;10.90;99.90
28075;DHT22;15385;51.088;6.572;2022-11-06T01:28:27;10.90;99.90
28075;DHT22;15385;51.088;6.572;2022-11-06T01:31:17;10.90;99.90
28075;DHT22;15385;51.088;6.572;2022-11-06T01:33:47;10.90;99.90
28075;DHT22;15385;51.088;6.572;2022-11-06T01:36:21;10.90;99.90
28075;DHT22;15385;51.088;6.572;2022-11-06T01:38:53;10.90;99.90
28075;DHT22;15385;51.088;6.572;2022-11-06T01:41:28;10.90;99.90
28075;DHT22;15385;51.088;6.572;2022-11-06T01:46:48;10.80;99.90
28075;DHT22;15385;51.088;6.572;2022-11-06T01:49:19;10.90;99.90
28075;DHT22;15385;51.088;6.572;2022-11-06T01:51:51;10.90;99.90
28075;DHT22;15385;51.088;6.572;2022-11-06T01:54:23;11.00;99.90
28075;DHT22;15385;51.088;6.572;2022-11-06T01:56:55;11.00;99.90
28075;DHT22;15385;51.088;6.572;2022-11-06T01:59:26;11.00;99.90
28075;DHT22;15385;51.088;6.572;2022-11-06T02:01:58;11.00;99.90
28075;DHT22;15385;51.088;6.572;2022-11-06T02:04:36;10.90;99.90
28075;DHT22;15385;51.088;6.572;2022-11-06T02:07:07;10.80;99.90
28075;DHT22;15385;51.088;6.572;2022-11-06T02:09:37;10.80;99.90
28075;DHT22;15385;51.088;6.572;2022-11-06T02:28:30;10.70;99.90
28075;DHT22;15385;51.088;6.572;2022-11-06T02:31:04;10.70;99.90
28075;DHT22;15385;51.088;6.572;2022-11-06T02:33:37;10.60;99.90
28075;DHT22;15385;51.088;6.572;2022-11-06T02:36:11;10.60;99.90
28075;DHT22;15385;51.088;6.572;2022-11-06T02:38:47;10.60;99.90
28075;DHT22;15385;51.088;6.572;2022-11-06T02:41:19;10.60;99.90
28075;DHT22;15385;51.088;6.572;2022-11-06T02:43:52;10.70;99.90
28075;DHT22;15385;51.088;6.572;2022-11-06T02:46:29;10.80;99.90
28075;DHT22;15385;51.088;6.572;2022-11-06T02:49:02;10.80;99.90
28075;DHT22;15385;51.088;6.572;2022-11-06T02:51:35;10.80;99.90
28075;DHT22;15385;51.088;6.572;2022-11-06T02:54:07;10.80;99.90
28075;DHT22;15385;51.088;6.572;2022-11-06T02:56:40;10.80;99.90
28075;DHT22;15385;51.088;6.572;2022-11-06T02:59:19;10.80;99.90
28075;DHT22;15385;51.088;6.572;2022-11-06T03:04:24;10.80;99.90
28075;DHT22;15385;51.088;6.572;2022-11-06T03:06:59;10.80;99.90
28075;DHT22;15385;51.088;6.572;2022-11-06T03:09:32;10.80;99.90
28075;DHT22;15385;51.088;6.572;2022-11-06T03:12:17;10.80;99.90
28075;DHT22;15385;51.088;6.572;2022-11-06T03:14:56;10.80;99.90
28075;DHT22;15385;51.088;6.572;2022-11-06T03:17:39;10.80;99.90
28075;DHT22;15385;51.088;6.572;2022-11-06T03:30:55;10.60;99.90
28075;DHT22;15385;51.088;6.572;2022-11-06T03:38:45;10.70;99.90
28075;DHT22;15385;51.088;6.572;2022-11-06T03:42:00;10.60;99.90
28075;DHT22;15385;51.088;6.572;2022-11-06T03:44:12;10.60;99.90
28075;DHT22;15385;51.088;6.572;2022-11-06T03:46:45;10.60;99.90
28075;DHT22;15385;51.088;6.572;2022-11-06T03:49:21;10.50;99.90
28075;DHT22;15385;51.088;6.572;2022-11-06T03:51:58;10.50;99.90
28075;DHT22;15385;51.088;6.572;2022-11-06T03:54:50;10.40;99.90
28075;DHT22;15385;51.088;6.572;2022-11-06T03:57:24;10.50;99.90
28075;DHT22;15385;51.088;6.572;2022-11-06T03:59:57;10.50;99.90
28075;DHT22;15385;51.088;6.572;2022-11-06T04:02:29;10.40;99.90
28075;DHT22;15385;51.088;6.572;2022-11-06T04:05:05;10.40;99.90
28075;DHT22;15385;51.088;6.572;2022-11-06T04:07:40;10.40;99.90
28075;DHT22;15385;51.088;6.572;2022-11-06T04:10:12;10.40;99.90
28075;DHT22;15385;51.088;6.572;2022-11-06T04:13:01;10.40;99.90
28075;DHT22;15385;51.088;6.572;2022-11-06T04:15:51;10.40;99.90
28075;DHT22;15385;51.088;6.572;2022-11-06T04:18:22;10.30;99.90
28075;DHT22;15385;51.088;6.572;2022-11-06T04:20:56;10.30;99.90
28075;DHT22;15385;51.088;6.572;2022-11-06T04:23:52;10.30;99.90
28075;DHT22;15385;51.088;6.572;2022-11-06T04:26:56;10.30;99.90
28075;DHT22;15385;51.088;6.572;2022-11-06T04:32:11;10.10;99.90
28075;DHT22;15385;51.088;6.572;2022-11-06T04:34:47;10.10;99.90
28075;DHT22;15385;51.088;6.572;2022-11-06T04:40:19;10.10;99.90
28075;DHT22;15385;51.088;6.572;2022-11-06T04:42:57;10.10;99.90
28075;DHT22;15385;51.088;6.572;2022-11-06T04:45:41;10.20;99.90
28075;DHT22;15385;51.088;6.572;2022-11-06T04:48:15;10.10;99.90
28075;DHT22;15385;51.088;6.572;2022-11-06T04:50:47;10.10;99.90
28075;DHT22;15385;51.088;6.572;2022-11-06T04:53:19;10.10;99.90
28075;DHT22;15385;51.088;6.572;2022-11-06T04:55:51;10.20;99.90
28075;DHT22;15385;51.088;6.572;2022-11-06T04:58:22;10.20;99.90
28075;DHT22;15385;51.088;6.572;2022-11-06T05:00:53;10.20;99.90
28075;DHT22;15385;51.088;6.572;2022-11-06T05:03:23;10.30;99.90
28075;DHT22;15385;51.088;6.572;2022-11-06T05:05:54;10.30;99.90
28075;DHT22;15385;51.088;6.572;2022-11-06T05:08:24;10.30;99.90
28075;DHT22;15385;51.088;6.572;2022-11-06T05:10:55;10.40;99.90
28075;DHT22;15385;51.088;6.572;2022-11-06T05:13:25;10.40;99.90
28075;DHT22;15385;51.088;6.572;2022-11-06T05:15:56;10.40;99.90
28075;DHT22;15385;51.088;6.572;2022-11-06T05:18:27;10.40;99.90
28075;DHT22;15385;51.088;6.572;2022-11-06T05:20:58;10.60;99.90
28075;DHT22;15385;51.088;6.572;2022-11-06T05:23:47;10.50;99.90
28075;DHT22;15385;51.088;6.572;2022-11-06T05:26:18;10.50;99.90
28075;DHT22;15385;51.088;6.572;2022-11-06T05:28:48;10.50;99.90
28075;DHT22;15385;51.088;6.572;2022-11-06T05:31:19;10.50;99.90
28075;DHT22;15385;51.088;6.572;2022-11-06T05:33:49;10.50;99.90
28075;DHT22;15385;51.088;6.572;2022-11-06T05:36:20;10.50;99.90
28075;DHT22;15385;51.088;6.572;2022-11-06T05:38:50;10.60;99.90
28075;DHT22;15385;51.088;6.572;2022-11-06T05:41:21;10.50;99.90
28075;DHT22;15385;51.088;6.572;2022-11-06T05:43:51;10.50;99.90
28075;DHT22;15385;51.088;6.572;2022-11-06T05:46:22;10.50;99.90
28075;DHT22;15385;51.088;6.572;2022-11-06T05:48:52;10.50;99.90
28075;DHT22;15385;51.088;6.572;2022-11-06T05:51:23;10.50;99.90
28075;DHT22;15385;51.088;6.572;2022-11-06T05:53:53;10.50;99.90
28075;DHT22;15385;51.088;6.572;2022-11-06T05:56:24;10.50;99.90
28075;DHT22;15385;51.088;6.572;2022-11-06T05:58:54;10.60;99.90
28075;DHT22;15385;51.088;6.572;2022-11-06T06:01:25;10.40;99.90
28075;DHT22;15385;51.088;6.572;2022-11-06T06:03:55;10.50;99.90
28075;DHT22;15385;51.088;6.572;2022-11-06T06:06:26;10.60;99.90
28075;DHT22;15385;51.088;6.572;2022-11-06T06:08:56;10.50;99.90
28075;DHT22;15385;51.088;6.572;2022-11-06T06:11:29;10.50;99.90
28075;DHT22;15385;51.088;6.572;2022-11-06T06:14:00;10.50;99.90
28075;DHT22;15385;51.088;6.572;2022-11-06T06:16:31;10.50;99.90
28075;DHT22;15385;51.088;6.572;2022-11-06T06:19:01;10.60;99.90
28075;DHT22;15385;51.088;6.572;2022-11-06T06:21:32;10.50;99.90
28075;DHT22;15385;51.088;6.572;2022-11-06T06:24:03;10.60;99.90
28075;DHT22;15385;51.088;6.572;2022-11-06T06:26:34;10.50;99.90
28075;DHT22;15385;51.088;6.572;2022-11-06T06:29:04;10.50;99.90
28075;DHT22;15385;51.088;6.572;2022-11-06T06:31:35;10.70;99.90
28075;DHT22;15385;51.088;6.572;2022-11-06T06:34:05;10.60;99.90
28075;DHT22;15385;51.088;6.572;2022-11-06T06:36:36;10.60;99.90
28075;DHT22;15385;51.088;6.572;2022-11-06T06:39:06;10.60;99.90
28075;DHT22;15385;51.088;6.572;2022-11-06T06:41:37;10.50;99.90
28075;DHT22;15385;51.088;6.572;2022-11-06T06:44:07;10.60;99.90
28075;DHT22;15385;51.088;6.572;2022-11-06T06:46:38;10.60;99.90
28075;DHT22;15385;51.088;6.572;2022-11-06T06:49:08;10.60;99.90
28075;DHT22;15385;51.088;6.572;2022-11-06T06:51:39;10.50;99.90
28075;DHT22;15385;51.088;6.572;2022-11-06T06:54:09;10.60;99.90
28075;DHT22;15385;51.088;6.572;2022-11-06T06:56:40;10.60;99.90
28075;DHT22;15385;51.088;6.572;2022-11-06T06:59:10;10.70;99.90
28075;DHT22;15385;51.088;6.572;2022-11-06T07:01:41;10.80;99.90
28075;DHT22;15385;51.088;6.572;2022-11-06T07:04:11;10.70;99.90
28075;DHT22;15385;51.088;6.572;2022-11-06T07:06:42;10.70;99.90
28075;DHT22;15385;51.088;6.572;2022-11-06T07:09:12;10.70;99.90
28075;DHT22;15385;51.088;6.572;2022-11-06T07:11:43;10.70;99.90
28075;DHT22;15385;51.088;6.572;2022-11-06T07:14:13;10.70;99.90
28075;DHT22;15385;51.088;6.572;2022-11-06T07:16:44;10.80;99.90
28075;DHT22;15385;51.088;6.572;2022-11-06T07:19:15;10.80;99.90
28075;DHT22;15385;51.088;6.572;2022-11-06T07:21:46;10.90;99.90
28075;DHT22;15385;51.088;6.572;2022-11-06T07:24:16;11.00;99.90
28075;DHT22;15385;51.088;6.572;2022-11-06T07:26:47;11.10;99.90
28075;DHT22;15385;51.088;6.572;2022-11-06T07:29:17;11.20;99.90
28075;DHT22;15385;51.088;6.572;2022-11-06T07:31:48;11.30;99.90
28075;DHT22;15385;51.088;6.572;2022-11-06T07:34:18;11.30;99.90
28075;DHT22;15385;51.088;6.572;2022-11-06T07:36:49;11.30;99.90
28075;DHT22;15385;51.088;6.572;2022-11-06T07:39:19;11.40;99.90
28075;DHT22;15385;51.088;6.572;2022-11-06T07:41:50;11.60;99.90
28075;DHT22;15385;51.088;6.572;2022-11-06T07:44:20;11.70;99.90
28075;DHT22;15385;51.088;6.572;2022-11-06T07:46:51;11.70;99.90
28075;DHT22;15385;51.088;6.572;2022-11-06T07:49:21;11.80;99.90
28075;DHT22;15385;51.088;6.572;2022-11-06T07:51:52;11.90;99.90
28075;DHT22;15385;51.088;6.572;2022-11-06T07:54:22;11.80;99.90
28075;DHT22;15385;51.088;6.572;2022-11-06T07:56:53;11.90;99.90
28075;DHT22;15385;51.088;6.572;2022-11-06T07:59:23;11.80;99.90
28075;DHT22;15385;51.088;6.572;2022-11-06T08:01:54;11.80;99.90
28075;DHT22;15385;51.088;6.572;2022-11-06T08:04:24;11.70;99.90
28075;DHT22;15385;51.088;6.572;2022-11-06T08:06:58;11.80;99.90
28075;DHT22;15385;51.088;6.572;2022-11-06T08:09:28;11.80;99.90
28075;DHT22;15385;51.088;6.572;2022-11-06T08:11:59;12.00;99.90
28075;DHT22;15385;51.088;6.572;2022-11-06T08:14:29;12.30;99.90
28075;DHT22;15385;51.088;6.572;2022-11-06T08:17:00;12.40;99.90
28075;DHT22;15385;51.088;6.572;2022-11-06T08:19:30;12.40;99.90
28075;DHT22;15385;51.088;6.572;2022-11-06T08:22:01;12.70;99.90
28075;DHT22;15385;51.088;6.572;2022-11-06T08:24:32;12.80;99.90
28075;DHT22;15385;51.088;6.572;2022-11-06T08:27:03;12.70;99.90
28075;DHT22;15385;51.088;6.572;2022-11-06T08:29:33;12.70;99.90
28075;DHT22;15385;51.088;6.572;2022-11-06T08:32:04;12.70;99.90
28075;DHT22;15385;51.088;6.572;2022-11-06T08:34:34;12.80;99.90
28075;DHT22;15385;51.088;6.572;2022-11-06T08:37:05;12.70;99.90
28075;DHT22;15385;51.088;6.572;2022-11-06T08:39:36;12.80;99.90
28075;DHT22;15385;51.088;6.572;2022-11-06T08:42:06;12.90;99.90
28075;DHT22;15385;51.088;6.572;2022-11-06T08:44:37;13.10;99.90
28075;DHT22;15385;51.088;6.572;2022-11-06T08:47:08;13.30;99.90
28075;DHT22;15385;51.088;6.572;2022-11-06T08:49:38;13.50;99.90
28075;DHT22;15385;51.088;6.572;2022-11-06T08:52:09;13.70;99.90
28075;DHT22;15385;51.088;6.572;2022-11-06T08:54:40;13.70;99.90
28075;DHT22;15385;51.088;6.572;2022-11-06T08:57:10;13.90;99.90
28075;DHT22;15385;51.088;6.572;2022-11-06T08:59:41;14.10;99.90
28075;DHT22;15385;51.088;6.572;2022-11-06T09:02:11;14.30;99.90
28075;DHT22;15385;51.088;6.572;2022-11-06T09:04:43;14.60;99.90
28075;DHT22;15385;51.088;6.572;2022-11-06T09:07:14;14.60;99.90
28075;DHT22;15385;51.088;6.572;2022-11-06T09:09:44;14.60;99.90
28075;DHT22;15385;51.088;6.572;2022-11-06T09:12:15;14.80;99.90
28075;DHT22;15385;51.088;6.572;2022-11-06T09:14:45;15.10;99.90
28075;DHT22;15385;51.088;6.572;2022-11-06T09:17:16;15.30;99.90
28075;DHT22;15385;51.088;6.572;2022-11-06T09:19:49;15.60;99.90
28075;DHT22;15385;51.088;6.572;2022-11-06T09:22:20;16.00;99.90
28075;DHT22;15385;51.088;6.572;2022-11-06T09:24:50;16.50;99.90
28075;DHT22;15385;51.088;6.572;2022-11-06T09:27:21;16.50;99.90
28075;DHT22;15385;51.088;6.572;2022-11-06T09:29:51;16.50;99.90
28075;DHT22;15385;51.088;6.572;2022-11-06T09:32:22;16.50;99.90
28075;DHT22;15385;51.088;6.572;2022-11-06T09:34:53;16.20;99.90
28075;DHT22;15385;51.088;6.572;2022-11-06T09:37:24;15.70;99.90
28075;DHT22;15385;51.088;6.572;2022-11-06T09:39:55;15.30;99.90
28075;DHT22;15385;51.088;6.572;2022-11-06T09:45:18;15.30;99.90
28075;DHT22;15385;51.088;6.572;2022-11-06T09:47:53;15.50;99.90
28075;DHT22;15385;51.088;6.572;2022-11-06T09:50:28;15.40;99.90
28075;DHT22;15385;51.088;6.572;2022-11-06T09:53:00;15.20;99.90
28075;DHT22;15385;51.088;6.572;2022-11-06T09:55:40;15.50;99.90
28075;DHT22;15385;51.088;6.572;2022-11-06T09:58:15;16.10;99.90
28075;DHT22;15385;51.088;6.572;2022-11-06T10:00:49;16.90;99.90
28075;DHT22;15385;51.088;6.572;2022-11-06T10:05:51;17.00;99.90
28075;DHT22;15385;51.088;6.572;2022-11-06T10:08:26;17.20;99.90
28075;DHT22;15385;51.088;6.572;2022-11-06T10:11:17;17.50;99.90
28075;DHT22;15385;51.088;6.572;2022-11-06T10:17:01;16.60;99.90
28075;DHT22;15385;51.088;6.572;2022-11-06T10:22:13;15.90;99.90
28075;DHT22;15385;51.088;6.572;2022-11-06T10:27:40;15.40;99.90
28075;DHT22;15385;51.088;6.572;2022-11-06T10:30:14;15.10;99.90
28075;DHT22;15385;51.088;6.572;2022-11-06T10:35:18;15.00;99.90
28075;DHT22;15385;51.088;6.572;2022-11-06T10:37:58;15.10;99.90
28075;DHT22;15385;51.088;6.572;2022-11-06T10:40:30;15.00;99.90
28075;DHT22;15385;51.088;6.572;2022-11-06T10:43:11;14.90;99.90
28075;DHT22;15385;51.088;6.572;2022-11-06T10:45:44;14.80;99.90
28075;DHT22;15385;51.088;6.572;2022-11-06T10:48:19;14.60;99.90
28075;DHT22;15385;51.088;6.572;2022-11-06T10:53:36;14.60;99.90
28075;DHT22;15385;51.088;6.572;2022-11-06T10:56:13;14.60;99.90
28075;DHT22;15385;51.088;6.572;2022-11-06T10:58:49;14.50;99.90
28075;DHT22;15385;51.088;6.572;2022-11-06T11:01:20;14.40;99.90
28075;DHT22;15385;51.088;6.572;2022-11-06T11:03:50;14.30;99.90
28075;DHT22;15385;51.088;6.572;2022-11-06T11:06:21;14.20;99.90
28075;DHT22;15385;51.088;6.572;2022-11-06T11:08:51;14.10;99.90
28075;DHT22;15385;51.088;6.572;2022-11-06T11:16:33;13.80;99.90
28075;DHT22;15385;51.088;6.572;2022-11-06T11:19:14;14.00;99.90
28075;DHT22;15385;51.088;6.572;2022-11-06T11:21:51;14.00;99.90
28075;DHT22;15385;51.088;6.572;2022-11-06T11:24:22;13.90;99.90
28075;DHT22;15385;51.088;6.572;2022-11-06T11:29:28;14.30;99.90
28075;DHT22;15385;51.088;6.572;2022-11-06T11:32:03;14.40;99.90
28075;DHT22;15385;51.088;6.572;2022-11-06T11:34:36;14.50;99.90
28075;DHT22;15385;51.088;6.572;2022-11-06T11:37:19;14.50;99.90
28075;DHT22;15385;51.088;6.572;2022-11-06T11:39:50;14.50;99.90
28075;DHT22;15385;51.088;6.572;2022-11-06T11:42:25;14.50;99.90
28075;DHT22;15385;51.088;6.572;2022-11-06T11:47:56;14.40;99.90
28075;DHT22;15385;51.088;6.572;2022-11-06T11:50:40;14.50;99.90
28075;DHT22;15385;51.088;6.572;2022-11-06T11:53:12;14.50;99.90
28075;DHT22;15385;51.088;6.572;2022-11-06T11:55:48;14.40;99.90
28075;DHT22;15385;51.088;6.572;2022-11-06T11:58:20;14.60;99.90
28075;DHT22;15385;51.088;6.572;2022-11-06T12:00:56;14.70;99.90
28075;DHT22;15385;51.088;6.572;2022-11-06T12:03:31;14.60;99.90
28075;DHT22;15385;51.088;6.572;2022-11-06T12:06:13;14.50;99.90
28075;DHT22;15385;51.088;6.572;2022-11-06T12:08:45;14.50;99.90
28075;DHT22;15385;51.088;6.572;2022-11-06T12:11:21;14.50;99.90
28075;DHT22;15385;51.088;6.572;2022-11-06T12:14:15;14.50;99.90
28075;DHT22;15385;51.088;6.572;2022-11-06T12:16:49;14.50;99.90
28075;DHT22;15385;51.088;6.572;2022-11-06T12:19:20;14.40;99.90
28075;DHT22;15385;51.088;6.572;2022-11-06T12:21:53;14.40;99.90
28075;DHT22;15385;51.088;6.572;2022-11-06T12:24:34;14.50;99.90
28075;DHT22;15385;51.088;6.572;2022-11-06T12:27:10;14.40;99.90
28075;DHT22;15385;51.088;6.572;2022-11-06T12:32:20;14.30;99.90
28075;DHT22;15385;51.088;6.572;2022-11-06T12:40:20;14.10;99.90
28075;DHT22;15385;51.088;6.572;2022-11-06T12:42:54;14.00;99.90
28075;DHT22;15385;51.088;6.572;2022-11-06T12:45:31;13.90;99.90
28075;DHT22;15385;51.088;6.572;2022-11-06T12:48:09;14.00;99.90
28075;DHT22;15385;51.088;6.572;2022-11-06T12:56:24;15.10;99.90
28075;DHT22;15385;51.088;6.572;2022-11-06T13:20:55;14.60;99.90
28075;DHT22;15385;51.088;6.572;2022-11-06T13:23:30;14.60;99.90
28075;DHT22;15385;51.088;6.572;2022-11-06T13:26:24;14.60;99.90
28075;DHT22;15385;51.088;6.572;2022-11-06T13:28:56;14.60;99.90
28075;DHT22;15385;51.088;6.572;2022-11-06T13:31:29;14.60;99.90
28075;DHT22;15385;51.088;6.572;2022-11-06T13:34:02;14.60;99.90
28075;DHT22;15385;51.088;6.572;2022-11-06T13:36:34;14.60;99.90
28075;DHT22;15385;51.088;6.572;2022-11-06T13:39:08;14.90;99.90
28075;DHT22;15385;51.088;6.572;2022-11-06T13:41:43;14.60;99.90
28075;DHT22;15385;51.088;6.572;2022-11-06T13:44:13;14.60;99.90
28075;DHT22;15385;51.088;6.572;2022-11-06T13:52:15;14.50;99.90
28075;DHT22;15385;51.088;6.572;2022-11-06T14:05:35;14.40;99.90
28075;DHT22;15385;51.088;6.572;2022-11-06T14:08:10;14.40;99.90
28075;DHT22;15385;51.088;6.572;2022-11-06T14:10:47;14.30;99.90
28075;DHT22;15385;51.088;6.572;2022-11-06T14:13:22;14.30;99.90
28075;DHT22;15385;51.088;6.572;2022-11-06T14:16:38;14.30;99.90
28075;DHT22;15385;51.088;6.572;2022-11-06T14:18:52;14.30;99.90
28075;DHT22;15385;51.088;6.572;2022-11-06T14:34:32;14.10;99.90
28075;DHT22;15385;51.088;6.572;2022-11-06T14:37:45;14.10;99.90
28075;DHT22;15385;51.088;6.572;2022-11-06T14:42:28;13.80;99.90
28075;DHT22;15385;51.088;6.572;2022-11-06T14:45:10;13.80;99.90
28075;DHT22;15385;51.088;6.572;2022-11-06T14:47:47;13.80;99.90
28075;DHT22;15385;51.088;6.572;2022-11-06T14:50:25;13.70;99.90
28075;DHT22;15385;51.088;6.572;2022-11-06T14:55:38;13.60;99.90
28075;DHT22;15385;51.088;6.572;2022-11-06T14:58:26;13.60;99.90
28075;DHT22;15385;51.088;6.572;2022-11-06T15:03:50;13.50;99.90
28075;DHT22;15385;51.088;6.572;2022-11-06T15:16:48;13.00;99.90
28075;DHT22;15385;51.088;6.572;2022-11-06T15:19:21;13.10;99.90
28075;DHT22;15385;51.088;6.572;2022-11-06T15:21:54;13.10;99.90
28075;DHT22;15385;51.088;6.572;2022-11-06T15:24:28;13.00;99.90
28075;DHT22;15385;51.088;6.572;2022-11-06T15:27:34;13.00;99.90
28075;DHT22;15385;51.088;6.572;2022-11-06T15:29:57;12.80;99.90
28075;DHT22;15385;51.088;6.572;2022-11-06T15:32:29;12.80;99.90
28075;DHT22;15385;51.088;6.572;2022-11-06T15:35:05;12.80;99.90
28075;DHT22;15385;51.088;6.572;2022-11-06T15:37:38;12.70;99.90
28075;DHT22;15385;51.088;6.572;2022-11-06T15:45:46;12.60;99.90
28075;DHT22;15385;51.088;6.572;2022-11-06T15:48:31;12.40;99.90
28075;DHT22;15385;51.088;6.572;2022-11-06T15:51:03;12.40;99.90
28075;DHT22;15385;51.088;6.572;2022-11-06T15:53:34;12.40;99.90
28075;DHT22;15385;51.088;6.572;2022-11-06T15:56:05;12.20;99.90
28075;DHT22;15385;51.088;6.572;2022-11-06T15:58:37;12.00;99.90
28075;DHT22;15385;51.088;6.572;2022-11-06T16:01:09;12.00;99.90
28075;DHT22;15385;51.088;6.572;2022-11-06T16:03:50;12.00;99.90
28075;DHT22;15385;51.088;6.572;2022-11-06T16:06:21;11.80;99.90
28075;DHT22;15385;51.088;6.572;2022-11-06T16:08:52;11.80;99.90
28075;DHT22;15385;51.088;6.572;2022-11-06T16:11:23;11.80;99.90
28075;DHT22;15385;51.088;6.572;2022-11-06T16:13:53;11.80;99.90
28075;DHT22;15385;51.088;6.572;2022-11-06T16:16:37;11.80;99.90
28075;DHT22;15385;51.088;6.572;2022-11-06T16:19:29;11.80;99.90
28075;DHT22;15385;51.088;6.572;2022-11-06T16:22:02;11.90;99.90
28075;DHT22;15385;51.088;6.572;2022-11-06T16:24:45;11.90;99.90
28075;DHT22;15385;51.088;6.572;2022-11-06T16:27:17;12.00;99.90
28075;DHT22;15385;51.088;6.572;2022-11-06T16:29:51;12.20;99.90
28075;DHT22;15385;51.088;6.572;2022-11-06T16:32:24;12.10;99.90
28075;DHT22;15385;51.088;6.572;2022-11-06T16:34:56;12.10;99.90
28075;DHT22;15385;51.088;6.572;2022-11-06T16:39:58;12.10;99.90
28075;DHT22;15385;51.088;6.572;2022-11-06T16:42:33;12.10;99.90
28075;DHT22;15385;51.088;6.572;2022-11-06T16:47:38;12.10;99.90
28075;DHT22;15385;51.088;6.572;2022-11-06T16:50:54;12.10;99.90
28075;DHT22;15385;51.088;6.572;2022-11-06T16:52:59;12.10;99.90
28075;DHT22;15385;51.088;6.572;2022-11-06T16:55:30;12.10;99.90
28075;DHT22;15385;51.088;6.572;2022-11-06T16:58:02;12.10;99.90
28075;DHT22;15385;51.088;6.572;2022-11-06T17:00:33;12.00;99.90
28075;DHT22;15385;51.088;6.572;2022-11-06T17:03:07;12.00;99.90
28075;DHT22;15385;51.088;6.572;2022-11-06T17:05:54;12.10;99.90
28075;DHT22;15385;51.088;6.572;2022-11-06T17:10:56;12.10;99.90
28075;DHT22;15385;51.088;6.572;2022-11-06T17:13:28;12.00;99.90
28075;DHT22;15385;51.088;6.572;2022-11-06T17:16:01;12.00;99.90
28075;DHT22;15385;51.088;6.572;2022-11-06T17:18:36;11.90;99.90
28075;DHT22;15385;51.088;6.572;2022-11-06T17:21:11;11.90;99.90
28075;DHT22;15385;51.088;6.572;2022-11-06T17:23:42;11.80;99.90
28075;DHT22;15385;51.088;6.572;2022-11-06T17:26:18;11.70;99.90
28075;DHT22;15385;51.088;6.572;2022-11-06T17:28:49;11.70;99.90
28075;DHT22;15385;51.088;6.572;2022-11-06T17:31:20;11.60;99.90
28075;DHT22;15385;51.088;6.572;2022-11-06T17:33:51;11.50;99.90
28075;DHT22;15385;51.088;6.572;2022-11-06T17:38:54;11.50;99.90
28075;DHT22;15385;51.088;6.572;2022-11-06T17:41:25;11.50;99.90
28075;DHT22;15385;51.088;6.572;2022-11-06T17:44:01;11.60;99.90
28075;DHT22;15385;51.088;6.572;2022-11-06T17:46:33;11.50;99.90
28075;DHT22;15385;51.088;6.572;2022-11-06T17:49:04;11.50;99.90
28075;DHT22;15385;51.088;6.572;2022-11-06T17:51:34;11.50;99.90
28075;DHT22;15385;51.088;6.572;2022-11-06T17:54:28;11.60;99.90
28075;DHT22;15385;51.088;6.572;2022-11-06T17:57:02;11.60;99.90
28075;DHT22;15385;51.088;6.572;2022-11-06T17:59:33;11.60;99.90
28075;DHT22;15385;51.088;6.572;2022-11-06T18:02:04;11.60;99.90
28075;DHT22;15385;51.088;6.572;2022-11-06T18:04:36;11.60;99.90
28075;DHT22;15385;51.088;6.572;2022-11-06T18:07:07;11.70;99.90
28075;DHT22;15385;51.088;6.572;2022-11-06T18:09:37;11.60;99.90
28075;DHT22;15385;51.088;6.572;2022-11-06T18:12:09;11.60;99.90
28075;DHT22;15385;51.088;6.572;2022-11-06T18:14:40;11.60;99.90
28075;DHT22;15385;51.088;6.572;2022-11-06T18:17:11;11.70;99.90
28075;DHT22;15385;51.088;6.572;2022-11-06T18:19:41;11.60;99.90
28075;DHT22;15385;51.088;6.572;2022-11-06T18:22:12;11.70;99.90
28075;DHT22;15385;51.088;6.572;2022-11-06T18:24:42;11.60;99.90
28075;DHT22;15385;51.088;6.572;2022-11-06T18:27:13;11.70;99.90
28075;DHT22;15385;51.088;6.572;2022-11-06T18:29:43;11.60;99.90
28075;DHT22;15385;51.088;6.572;2022-11-06T18:32:14;11.70;99.90
28075;DHT22;15385;51.088;6.572;2022-11-06T18:34:44;11.60;99.90
28075;DHT22;15385;51.088;6.572;2022-11-06T18:37:15;11.60;99.90
28075;DHT22;15385;51.088;6.572;2022-11-06T18:39:45;11.70;99.90
28075;DHT22;15385;51.088;6.572;2022-11-06T18:42:16;11.70;99.90
28075;DHT22;15385;51.088;6.572;2022-11-06T18:44:46;11.60;99.90
28075;DHT22;15385;51.088;6.572;2022-11-06T18:47:17;11.60;99.90
28075;DHT22;15385;51.088;6.572;2022-11-06T18:49:47;11.60;99.90
28075;DHT22;15385;51.088;6.572;2022-11-06T18:52:18;11.70;99.90
28075;DHT22;15385;51.088;6.572;2022-11-06T18:54:48;11.70;99.90
28075;DHT22;15385;51.088;6.572;2022-11-06T18:57:19;11.60;99.90
28075;DHT22;15385;51.088;6.572;2022-11-06T18:59:49;11.60;99.90